Time;durP1;ratioP1;P1;durP2;ratioP2;P2;SDS_P1;SDS_P2;PMS_P1;PMS_P2;Temp;Humidity;BMP_temperature;BMP_pressure;BME280_temperature;BME280_humidity;BME280_pressure;Samples;Min_cycle;Max_cycle;Signal;HPM_P1;HPM_P2
2022/11/29 00:00:34;;;;;;;0.20;0.20;;;6.80;99.90;;;;;;5030415;28;20053;-84
2022/11/29 00:03:00;;;;;;;0.55;0.55;;;6.80;99.90;;;;;;5049670;28;20025;-83
2022/11/29 00:05:26;;;;;;;0.20;0.20;;;6.90;99.90;;;;;;5050078;28;20473;-87
2022/11/29 00:07:52;;;;;;;0.30;0.30;;;6.80;99.90;;;;;;5060550;28;20059;-90
2022/11/29 00:10:19;;;;;;;1.45;0.77;;;6.80;99.90;;;;;;5054593;28;20036;-88
2022/11/29 00:12:47;;;;;;;0.43;0.43;;;6.80;99.90;;;;;;5053100;28;20035;-88
2022/11/29 00:15:14;;;;;;;0.88;0.85;;;6.80;99.90;;;;;;5057400;28;20058;-85
2022/11/29 00:17:39;;;;;;;0.10;0.10;;;7.00;99.90;;;;;;5052243;28;20029;-88
2022/11/29 00:20:06;;;;;;;0.55;0.30;;;7.10;99.90;;;;;;5035129;28;20098;-86
2022/11/29 00:22:32;;;;;;;0.20;0.20;;;7.00;99.90;;;;;;5032528;28;20568;-86
2022/11/29 00:24:57;;;;;;;0.50;0.50;;;7.00;99.90;;;;;;5053217;28;20235;-89
2022/11/29 00:27:23;;;;;;;0.25;0.25;;;7.20;99.90;;;;;;5055215;28;20035;-90
2022/11/29 00:29:49;;;;;;;0.28;0.28;;;7.10;99.90;;;;;;5038569;28;20041;-88
2022/11/29 00:32:14;;;;;;;0.40;0.40;;;7.10;99.90;;;;;;5035938;28;20072;-88
2022/11/29 00:34:40;;;;;;;2.45;0.82;;;7.10;99.90;;;;;;5035114;28;20478;-88
2022/11/29 00:37:06;;;;;;;0.68;0.68;;;7.10;99.90;;;;;;5069097;28;20840;-89
2022/11/29 00:39:31;;;;;;;0.10;0.10;;;7.10;99.90;;;;;;5036779;28;20029;-88
2022/11/29 00:41:57;;;;;;;1.67;0.65;;;7.10;99.90;;;;;;5063101;28;20033;-87
2022/11/29 00:44:23;;;;;;;0.68;0.68;;;7.10;99.90;;;;;;5060044;28;20090;-87
2022/11/29 00:46:49;;;;;;;0.40;0.40;;;7.20;99.90;;;;;;5033018;28;20036;-88
2022/11/29 00:49:14;;;;;;;1.55;0.63;;;7.10;99.90;;;;;;5035335;28;20029;-88
2022/11/29 00:51:40;;;;;;;0.20;0.20;;;7.00;99.90;;;;;;5051298;28;20929;-87
2022/11/29 00:54:06;;;;;;;0.30;0.30;;;6.90;99.90;;;;;;5040579;28;20807;-91
2022/11/29 00:56:31;;;;;;;0.20;0.20;;;7.00;99.90;;;;;;5034535;28;20508;-87
2022/11/29 00:58:57;;;;;;;0.10;0.10;;;7.10;99.90;;;;;;5050021;28;20398;-84
2022/11/29 01:01:23;;;;;;;0.20;0.20;;;7.10;99.90;;;;;;5055626;28;20029;-87
2022/11/29 01:03:48;;;;;;;0.15;0.15;;;7.10;99.90;;;;;;5031004;28;20518;-85
2022/11/29 01:06:16;;;;;;;0.20;0.20;;;7.00;99.90;;;;;;5049148;28;20033;-86
2022/11/29 01:08:44;;;;;;;0.57;0.57;;;7.00;99.90;;;;;;5048234;28;20132;-84
2022/11/29 01:11:22;;;;;;;0.45;0.45;;;7.10;99.90;;;;;;5029597;28;20140;-85
2022/11/29 01:13:49;;;;;;;0.40;0.40;;;6.90;99.90;;;;;;5046357;28;21787;-86
2022/11/29 01:16:15;;;;;;;0.10;0.10;;;6.90;99.90;;;;;;5050874;28;20080;-84
2022/11/29 01:18:42;;;;;;;0.17;0.17;;;7.00;99.90;;;;;;5031712;28;20116;-85
2022/11/29 01:21:14;;;;;;;0.35;0.35;;;6.90;99.90;;;;;;5048904;28;20024;-85
2022/11/29 01:23:41;;;;;;;0.57;0.57;;;6.80;99.90;;;;;;5031720;28;20033;-87
2022/11/29 01:26:18;;;;;;;0.20;0.20;;;6.80;99.90;;;;;;5030198;28;20033;-84
2022/11/29 01:28:49;;;;;;;1.17;0.35;;;6.80;99.90;;;;;;5030325;28;20076;-84
2022/11/29 01:31:18;;;;;;;0.20;0.20;;;6.70;99.90;;;;;;5047671;28;20029;-86
2022/11/29 01:33:44;;;;;;;0.13;0.13;;;6.80;99.90;;;;;;5045442;28;20044;-86
2022/11/29 01:36:12;;;;;;;0.47;0.47;;;6.70;99.90;;;;;;5045827;28;20056;-85
2022/11/29 01:38:37;;;;;;;0.25;0.25;;;6.70;99.90;;;;;;5048349;28;20104;-85
2022/11/29 01:41:11;;;;;;;0.32;0.32;;;6.70;99.90;;;;;;5026492;28;20123;-86
2022/11/29 01:43:54;;;;;;;0.98;0.85;;;6.70;99.90;;;;;;5029211;28;20040;-85
2022/11/29 01:46:19;;;;;;;0.30;0.30;;;6.70;99.90;;;;;;5048386;28;20041;-85
2022/11/29 01:48:46;;;;;;;0.22;0.22;;;6.90;99.90;;;;;;5050383;28;20041;-86
2022/11/29 01:51:11;;;;;;;0.20;0.20;;;7.00;99.90;;;;;;5027327;28;20041;-85
2022/11/29 01:53:37;;;;;;;0.10;0.10;;;7.00;99.90;;;;;;5042850;28;20041;-87
2022/11/29 01:56:04;;;;;;;0.47;0.47;;;7.10;99.90;;;;;;5029056;28;20065;-85
2022/11/29 01:58:31;;;;;;;0.10;0.10;;;6.90;99.90;;;;;;5048367;28;20037;-85
2022/11/29 02:00:59;;;;;;;1.55;0.45;;;6.90;99.90;;;;;;5047469;28;20041;-85
2022/11/29 02:03:25;;;;;;;0.25;0.25;;;7.00;99.90;;;;;;5059325;28;20033;-85
2022/11/29 02:05:52;;;;;;;0.30;0.30;;;7.00;99.90;;;;;;5047770;28;20717;-85
2022/11/29 02:08:26;;;;;;;;;;;7.00;99.90;;;;;;5059368;28;20037;-85
2022/11/29 02:10:51;;;;;;;0.30;0.30;;;7.10;99.90;;;;;;5047755;28;19947;-84
2022/11/29 02:13:50;;;;;;;0.38;0.38;;;7.20;99.90;;;;;;5057203;28;20041;-84
2022/11/29 02:16:39;;;;;;;0.30;0.30;;;7.10;99.90;;;;;;5028977;28;20044;-85
2022/11/29 02:19:33;;;;;;;0.45;0.38;;;7.10;99.90;;;;;;5052152;28;20025;-85
2022/11/29 02:22:16;;;;;;;0.10;0.10;;;7.10;99.90;;;;;;5047160;28;20036;-84
2022/11/29 02:24:50;;;;;;;0.35;0.35;;;7.10;99.90;;;;;;5051870;28;20037;-83
2022/11/29 02:27:22;;;;;;;0.30;0.30;;;7.10;99.90;;;;;;5047734;28;20059;-84
2022/11/29 02:30:25;;;;;;;0.20;0.20;;;7.10;99.90;;;;;;5044308;28;20033;-84
2022/11/29 02:33:12;;;;;;;0.28;0.28;;;7.10;99.90;;;;;;5062921;28;20040;-85
2022/11/29 02:35:53;;;;;;;0.10;0.10;;;7.00;99.90;;;;;;5029359;28;20025;-84
2022/11/29 02:38:35;;;;;;;0.15;0.15;;;7.10;99.90;;;;;;5055641;28;20028;-84
2022/11/29 02:41:13;;;;;;;0.45;0.45;;;7.10;99.90;;;;;;5029215;28;20025;-84
2022/11/29 02:44:05;;;;;;;0.70;0.70;;;7.10;99.90;;;;;;5046956;28;20029;-84
2022/11/29 02:47:09;;;;;;;0.25;0.25;;;7.00;99.90;;;;;;5000257;28;20071;-84
2022/11/29 02:50:22;;;;;;;0.30;0.30;;;7.00;99.90;;;;;;5028850;28;20041;-84
2022/11/29 02:53:21;;;;;;;0.10;0.10;;;7.00;99.90;;;;;;5019688;28;20464;-84
2022/11/29 02:56:13;;;;;;;1.65;0.73;;;7.00;99.90;;;;;;4986394;28;20076;-84
2022/11/29 02:58:54;;;;;;;0.60;0.57;;;7.00;99.90;;;;;;5047442;28;20029;-85
2022/11/29 03:01:54;;;;;;;0.22;0.22;;;7.10;99.90;;;;;;5044880;28;20035;-83
2022/11/29 03:04:43;;;;;;;0.13;0.13;;;7.20;99.90;;;;;;5046868;28;20043;-83
2022/11/29 03:07:25;;;;;;;0.20;0.20;;;7.10;99.90;;;;;;5029552;28;20145;-83
2022/11/29 03:10:07;;;;;;;0.22;0.22;;;7.00;99.90;;;;;;5038141;28;20033;-83
2022/11/29 03:12:46;;;;;;;0.25;0.25;;;7.00;99.90;;;;;;5042309;28;20112;-84
2022/11/29 03:15:42;;;;;;;0.43;0.43;;;7.00;99.90;;;;;;5025396;28;20064;-85
2022/11/29 03:18:40;;;;;;;0.25;0.25;;;7.00;99.90;;;;;;5029016;28;20033;-89
2022/11/29 03:21:50;;;;;;;1.85;0.70;;;7.00;99.90;;;;;;5036831;28;20060;-88
2022/11/29 03:24:35;;;;;;;0.90;0.90;;;7.00;99.90;;;;;;5008296;28;20086;-89
2022/11/29 03:27:10;;;;;;;2.20;0.63;;;6.90;99.90;;;;;;5023429;28;20024;-89
2022/11/29 03:29:46;;;;;;;1.13;0.80;;;7.00;99.90;;;;;;5035583;28;20086;-89
2022/11/29 03:32:20;;;;;;;1.33;1.05;;;6.90;99.90;;;;;;5032447;28;20036;-87
2022/11/29 03:35:05;;;;;;;0.77;0.77;;;6.80;99.90;;;;;;5030411;28;20044;-87
2022/11/29 03:37:49;;;;;;;0.20;0.20;;;6.80;99.90;;;;;;5053575;28;20027;-88
2022/11/29 03:40:40;;;;;;;0.60;0.60;;;6.80;99.90;;;;;;5043376;28;20025;-88
2022/11/29 03:43:13;;;;;;;0.20;0.20;;;6.90;99.90;;;;;;5033502;28;20037;-84
2022/11/29 03:45:44;;;;;;;0.90;0.60;;;6.90;99.90;;;;;;5022691;28;20021;-84
2022/11/29 03:48:23;;;;;;;0.22;0.22;;;7.00;99.90;;;;;;5049600;28;20132;-84
2022/11/29 03:51:04;;;;;;;0.38;0.38;;;7.00;99.90;;;;;;5050092;28;20040;-85
2022/11/29 03:53:33;;;;;;;0.15;0.15;;;6.90;99.90;;;;;;5050193;28;20103;-84
2022/11/29 03:56:21;;;;;;;5.03;0.60;;;7.00;99.90;;;;;;5062875;28;20041;-85
2022/11/29 03:59:01;;;;;;;0.10;0.10;;;6.80;99.90;;;;;;5024706;28;20043;-84
2022/11/29 04:01:30;;;;;;;0.20;0.20;;;6.80;99.90;;;;;;5031679;28;20037;-87
2022/11/29 04:04:26;;;;;;;0.10;0.10;;;7.00;99.90;;;;;;5032455;28;20044;-87
2022/11/29 04:07:30;;;;;;;0.20;0.20;;;7.00;99.90;;;;;;5050705;28;20040;-86
2022/11/29 04:10:18;;;;;;;0.20;0.20;;;7.00;99.90;;;;;;5051118;28;20118;-85
2022/11/29 04:13:18;;;;;;;0.28;0.28;;;7.00;99.90;;;;;;5050027;28;20480;-84
2022/11/29 04:16:25;;;;;;;0.50;0.35;;;6.90;99.90;;;;;;5043868;28;20029;-84
2022/11/29 04:19:18;;;;;;;4.30;1.25;;;6.90;99.90;;;;;;5012193;28;20046;-88
2022/11/29 04:22:06;;;;;;;0.15;0.15;;;7.00;99.90;;;;;;5065532;28;20025;-89
2022/11/29 04:24:55;;;;;;;0.40;0.40;;;7.00;99.90;;;;;;5049899;28;20040;-86
2022/11/29 04:27:27;;;;;;;0.63;0.63;;;6.90;99.90;;;;;;5059478;28;20051;-85
2022/11/29 04:30:23;;;;;;;0.10;0.10;;;6.90;99.90;;;;;;5049203;28;20568;-85
2022/11/29 04:33:07;;;;;;;0.30;0.30;;;7.00;99.90;;;;;;5023921;28;20884;-85
2022/11/29 04:36:23;;;;;;;0.20;0.20;;;7.00;99.90;;;;;;5062265;28;20504;-89
2022/11/29 04:39:20;;;;;;;0.30;0.30;;;6.80;99.90;;;;;;4985249;28;20073;-87
2022/11/29 04:41:59;;;;;;;;;;;6.80;99.90;;;;;;4978154;28;20671;-86
2022/11/29 04:44:49;;;;;;;0.75;0.75;;;6.90;99.90;;;;;;5032599;28;19913;-86
2022/11/29 04:47:19;;;;;;;0.20;0.20;;;7.00;99.90;;;;;;5048252;28;20043;-86
2022/11/29 04:50:02;;;;;;;0.10;0.10;;;6.90;99.90;;;;;;5048238;28;20064;-85
2022/11/29 04:53:02;;;;;;;0.38;0.38;;;6.90;99.90;;;;;;5044543;28;20048;-87
2022/11/29 04:55:52;;;;;;;0.30;0.30;;;6.90;99.90;;;;;;5046767;28;20048;-88
2022/11/29 04:58:37;;;;;;;0.20;0.20;;;6.80;99.90;;;;;;5030043;28;20154;-85
2022/11/29 05:01:13;;;;;;;0.20;0.20;;;6.90;99.90;;;;;;5032798;28;20037;-87
2022/11/29 05:03:52;;;;;;;0.30;0.30;;;6.90;99.90;;;;;;5030892;28;20025;-86
2022/11/29 05:06:26;;;;;;;0.25;0.25;;;6.80;99.90;;;;;;5032764;28;20053;-86
2022/11/29 05:09:01;;;;;;;0.32;0.32;;;6.90;99.90;;;;;;5056990;28;20400;-86
2022/11/29 05:11:37;;;;;;;0.20;0.20;;;6.90;99.90;;;;;;5032852;28;20704;-88
2022/11/29 05:14:28;;;;;;;0.40;0.40;;;6.90;99.90;;;;;;5052853;28;20028;-86
2022/11/29 05:17:10;;;;;;;0.10;0.10;;;7.00;99.90;;;;;;5033395;28;20040;-86
2022/11/29 05:20:00;;;;;;;0.50;0.50;;;6.90;99.90;;;;;;5077742;28;20025;-89
2022/11/29 05:22:28;;;;;;;0.10;0.10;;;6.90;99.90;;;;;;5028730;28;20029;-90
2022/11/29 05:25:24;;;;;;;0.10;0.10;;;6.90;99.90;;;;;;5066822;28;20044;-89
2022/11/29 05:28:14;;;;;;;0.10;0.10;;;6.90;99.90;;;;;;5035063;28;20724;-87
2022/11/29 05:30:52;;;;;;;0.25;0.25;;;7.00;99.90;;;;;;5053299;28;20075;-86
2022/11/29 05:33:43;;;;;;;0.17;0.17;;;6.90;99.90;;;;;;5030475;28;20825;-86
2022/11/29 05:36:42;;;;;;;0.40;0.40;;;6.90;99.90;;;;;;5049137;28;20032;-84
2022/11/29 05:39:22;;;;;;;0.10;0.10;;;6.70;99.90;;;;;;5048639;28;20044;-84
2022/11/29 05:42:12;;;;;;;0.10;0.10;;;6.80;99.90;;;;;;5031749;28;20037;-87
2022/11/29 05:45:13;;;;;;;0.45;0.28;;;6.90;99.90;;;;;;5030809;28;20083;-85
2022/11/29 05:47:43;;;;;;;1.65;1.17;;;7.10;99.90;;;;;;4986353;28;20100;-93
2022/11/29 05:50:20;;;;;;;0.75;0.55;;;7.00;99.90;;;;;;5039830;28;20045;-94
2022/11/29 05:53:15;;;;;;;0.90;0.75;;;7.20;99.90;;;;;;5051010;28;20039;-91
2022/11/29 05:56:07;;;;;;;0.20;0.20;;;7.10;99.90;;;;;;5049623;28;20053;-89
2022/11/29 05:58:51;;;;;;;4.38;1.75;;;7.00;99.90;;;;;;5031492;28;20067;-87
2022/11/29 06:01:27;;;;;;;0.10;0.10;;;7.00;99.90;;;;;;5032772;28;20627;-94
2022/11/29 06:04:04;;;;;;;0.30;0.30;;;7.00;99.90;;;;;;5037260;28;20124;-87
2022/11/29 06:06:41;;;;;;;0.30;0.30;;;6.90;99.90;;;;;;5051091;28;20093;-87
2022/11/29 06:09:06;;;;;;;;;;;6.90;99.90;;;;;;5033100;28;20025;-92
2022/11/29 06:11:47;;;;;;;0.43;0.43;;;6.90;99.90;;;;;;5053611;28;19912;-89
2022/11/29 06:14:35;;;;;;;0.10;0.10;;;6.90;99.90;;;;;;5028985;28;20039;-87
2022/11/29 06:17:51;;;;;;;0.10;0.10;;;6.90;99.90;;;;;;5045328;28;20064;-87
2022/11/29 06:20:32;;;;;;;0.10;0.10;;;6.90;99.90;;;;;;5045628;28;20093;-93
2022/11/29 06:23:06;;;;;;;0.20;0.20;;;7.00;99.90;;;;;;5047196;28;20104;-91
2022/11/29 06:26:12;;;;;;;0.10;0.10;;;7.00;99.90;;;;;;5059675;28;20449;-86
2022/11/29 06:28:49;;;;;;;0.10;0.10;;;7.00;99.90;;;;;;5049299;28;20032;-85
2022/11/29 06:31:17;;;;;;;;;;;7.00;99.90;;;;;;5042979;28;20572;-85
2022/11/29 06:33:55;;;;;;;0.68;0.68;;;7.00;99.90;;;;;;5050860;28;20891;-85
2022/11/29 06:36:49;;;;;;;0.30;0.30;;;7.00;99.90;;;;;;5048243;28;20017;-86
2022/11/29 06:39:15;;;;;;;0.10;0.10;;;7.00;99.90;;;;;;5018289;28;20512;-82
2022/11/29 06:41:41;;;;;;;0.15;0.15;;;7.00;99.90;;;;;;5050030;28;20021;-92
2022/11/29 06:44:08;;;;;;;0.10;0.10;;;7.10;99.90;;;;;;5033608;28;20043;-86
2022/11/29 06:46:54;;;;;;;0.30;0.30;;;7.00;99.90;;;;;;5025090;28;20035;-87
2022/11/29 06:49:26;;;;;;;0.10;0.10;;;7.00;99.90;;;;;;5044225;28;20568;-86
2022/11/29 06:52:22;;;;;;;4.45;1.92;;;7.00;99.90;;;;;;5064660;28;20028;-92
2022/11/29 06:54:58;;;;;;;;;;;7.00;99.90;;;;;;5032006;28;20040;-89
2022/11/29 06:57:39;;;;;;;0.55;0.55;;;7.00;99.90;;;;;;5063050;28;20631;-89
2022/11/29 07:00:25;;;;;;;0.15;0.15;;;7.00;99.90;;;;;;5051720;28;20036;-89
2022/11/29 07:03:10;;;;;;;;;;;6.90;99.90;;;;;;5060214;28;20048;-89
2022/11/29 07:05:36;;;;;;;0.10;0.10;;;7.00;99.90;;;;;;5033469;28;19915;-89
2022/11/29 07:08:10;;;;;;;0.27;0.13;;;7.00;99.90;;;;;;5032351;28;20037;-88
2022/11/29 07:10:39;;;;;;;0.38;0.30;;;7.00;99.90;;;;;;5031896;28;20299;-86
2022/11/29 07:13:05;;;;;;;0.10;0.10;;;6.90;99.90;;;;;;5047986;28;20029;-86
2022/11/29 07:15:31;;;;;;;0.20;0.20;;;7.00;99.90;;;;;;5030337;28;20029;-88
2022/11/29 07:17:56;;;;;;;0.10;0.10;;;7.00;99.90;;;;;;5050801;28;20502;-88
2022/11/29 07:20:31;;;;;;;0.10;0.10;;;7.00;99.90;;;;;;5060148;28;20028;-88
2022/11/29 07:23:12;;;;;;;0.30;0.30;;;7.10;99.90;;;;;;5057920;28;20555;-91
2022/11/29 07:25:50;;;;;;;0.20;0.20;;;7.10;99.90;;;;;;5042122;28;20033;-91
2022/11/29 07:28:16;;;;;;;0.25;0.25;;;7.10;99.90;;;;;;5064672;28;20048;-92
2022/11/29 07:30:53;;;;;;;1.35;0.52;;;7.10;99.90;;;;;;5053235;28;20052;-91
2022/11/29 07:33:24;;;;;;;0.20;0.20;;;6.90;99.90;;;;;;5050852;28;20094;-91
2022/11/29 07:36:16;;;;;;;0.43;0.43;;;6.90;99.90;;;;;;5034474;28;20028;-89
2022/11/29 07:39:06;;;;;;;12.95;0.98;;;7.00;99.90;;;;;;5057959;28;20047;-92
2022/11/29 07:41:40;;;;;;;1.50;1.15;;;7.00;99.90;;;;;;5061711;28;20029;-88
2022/11/29 07:44:18;;;;;;;0.65;0.30;;;7.10;99.90;;;;;;5034043;28;20691;-87
2022/11/29 07:46:44;;;;;;;0.55;0.55;;;7.20;99.90;;;;;;5048733;28;20028;-87
2022/11/29 07:49:10;;;;;;;0.32;0.32;;;7.20;99.90;;;;;;5059293;28;20028;-87
2022/11/29 07:51:36;;;;;;;0.30;0.30;;;7.30;99.90;;;;;;5053872;28;20555;-86
2022/11/29 07:54:02;;;;;;;0.30;0.30;;;7.40;99.90;;;;;;5055116;28;20104;-86
2022/11/29 07:56:27;;;;;;;1.45;1.23;;;7.30;99.90;;;;;;5043793;28;20151;-84
2022/11/29 07:58:53;;;;;;;0.17;0.17;;;7.30;99.90;;;;;;5044495;28;20591;-84
2022/11/29 08:01:19;;;;;;;0.20;0.20;;;7.20;99.90;;;;;;5046145;28;20033;-85
2022/11/29 08:03:44;;;;;;;0.10;0.10;;;7.20;99.90;;;;;;5046433;28;20029;-85
2022/11/29 08:06:10;;;;;;;0.10;0.10;;;7.20;99.90;;;;;;5046376;28;20033;-85
2022/11/29 08:08:36;;;;;;;0.13;0.13;;;7.20;99.90;;;;;;5046922;28;20029;-85
2022/11/29 08:11:10;;;;;;;4.93;1.48;;;7.20;99.90;;;;;;5028881;28;20064;-85
2022/11/29 08:13:36;;;;;;;0.30;0.30;;;7.20;99.90;;;;;;5046753;28;20417;-85
2022/11/29 08:16:02;;;;;;;0.20;0.20;;;7.40;99.90;;;;;;5042020;28;20029;-85
2022/11/29 08:18:27;;;;;;;0.32;0.32;;;7.40;99.90;;;;;;5046240;28;20036;-85
2022/11/29 08:20:53;;;;;;;0.15;0.15;;;7.50;99.90;;;;;;5060251;28;20021;-85
2022/11/29 08:23:19;;;;;;;0.10;0.10;;;7.40;99.90;;;;;;5049899;28;20029;-85
2022/11/29 08:25:44;;;;;;;0.10;0.10;;;7.50;99.90;;;;;;5050299;28;20079;-85
2022/11/29 08:28:10;;;;;;;0.10;0.10;;;7.60;99.90;;;;;;5050171;28;20028;-85
2022/11/29 08:30:36;;;;;;;0.43;0.30;;;7.70;99.90;;;;;;5050596;28;20424;-85
2022/11/29 08:33:03;;;;;;;0.10;0.10;;;7.70;99.90;;;;;;5031886;28;20025;-85
2022/11/29 08:35:30;;;;;;;0.30;0.30;;;7.70;99.90;;;;;;5031830;28;20037;-85
2022/11/29 08:37:56;;;;;;;0.15;0.15;;;7.80;99.90;;;;;;5050451;28;20112;-85
2022/11/29 08:40:23;;;;;;;0.13;0.13;;;7.80;99.90;;;;;;5050110;28;20104;-85
2022/11/29 08:42:48;;;;;;;0.40;0.40;;;7.70;99.90;;;;;;5049951;28;20552;-84
2022/11/29 08:45:14;;;;;;;0.10;0.10;;;7.90;99.90;;;;;;5049687;28;20067;-85
2022/11/29 08:47:41;;;;;;;0.10;0.10;;;7.90;99.90;;;;;;5049794;28;20107;-85
2022/11/29 08:50:15;;;;;;;0.10;0.10;;;7.90;99.90;;;;;;5031875;28;20036;-84
2022/11/29 08:55:34;;;;;;;0.10;0.10;;;8.00;99.90;;;;;;5049979;28;20068;-85
2022/11/29 08:58:06;;;;;;;0.10;0.10;;;8.10;99.90;;;;;;5050082;28;20855;-86
2022/11/29 09:00:32;;;;;;;0.20;0.20;;;7.90;99.90;;;;;;5040344;28;20033;-86
2022/11/29 09:03:58;;;;;;;0.10;0.10;;;8.10;99.90;;;;;;5050148;28;20032;-85
2022/11/29 09:05:44;;;;;;;0.10;0.10;;;8.30;99.90;;;;;;5049755;28;20024;-86
2022/11/29 09:08:09;;;;;;;0.38;0.38;;;8.50;99.90;;;;;;5050032;28;20091;-85
2022/11/29 09:10:38;;;;;;;0.10;0.10;;;8.50;99.90;;;;;;5049739;28;20036;-86
2022/11/29 09:13:03;;;;;;;0.20;0.20;;;8.50;99.90;;;;;;5045802;28;20021;-86
2022/11/29 09:15:29;;;;;;;0.10;0.10;;;8.60;99.90;;;;;;5048928;28;20826;-85
2022/11/29 09:17:55;;;;;;;0.10;0.10;;;8.50;99.90;;;;;;5049680;28;20056;-84
2022/11/29 09:20:20;;;;;;;0.10;0.10;;;8.50;99.90;;;;;;5048805;28;20028;-84
2022/11/29 09:22:46;;;;;;;0.65;0.65;;;8.40;99.90;;;;;;5049290;28;20024;-86
2022/11/29 09:25:12;;;;;;;0.10;0.10;;;8.10;99.90;;;;;;5031672;28;20604;-86
2022/11/29 09:27:37;;;;;;;0.10;0.10;;;8.20;99.90;;;;;;5049396;28;20025;-85
2022/11/29 09:30:03;;;;;;;0.10;0.10;;;8.40;99.90;;;;;;5049681;28;20821;-87
2022/11/29 09:32:30;;;;;;;0.10;0.10;;;8.40;99.90;;;;;;5030146;28;20519;-86
2022/11/29 09:34:56;;;;;;;0.30;0.30;;;8.50;99.90;;;;;;5031173;28;20044;-85
2022/11/29 09:37:21;;;;;;;0.10;0.10;;;8.80;99.90;;;;;;5049842;28;20025;-85
2022/11/29 09:39:47;;;;;;;0.10;0.10;;;8.70;99.90;;;;;;5049118;28;20032;-85
2022/11/29 09:42:37;;;;;;;0.10;0.10;;;8.60;99.90;;;;;;5049206;28;20056;-86
2022/11/29 09:45:08;;;;;;;0.10;0.10;;;8.80;99.90;;;;;;5048032;28;20472;-86
2022/11/29 09:47:45;;;;;;;0.47;0.47;;;8.70;99.90;;;;;;5030861;28;20036;-86
2022/11/29 09:50:14;;;;;;;0.20;0.20;;;8.70;99.90;;;;;;5046274;28;20079;-86
2022/11/29 09:52:45;;;;;;;1.55;0.70;;;9.00;99.90;;;;;;5048674;28;20131;-85
2022/11/29 09:55:45;;;;;;;0.13;0.13;;;8.90;99.90;;;;;;5045972;28;20040;-86
2022/11/29 09:58:16;;;;;;;0.52;0.52;;;8.50;99.90;;;;;;5055203;28;20041;-86
2022/11/29 10:00:49;;;;;;;0.20;0.20;;;8.80;99.90;;;;;;5034087;28;20032;-86
2022/11/29 10:03:43;;;;;;;0.10;0.10;;;8.70;99.90;;;;;;5048920;28;20025;-87
2022/11/29 10:06:23;;;;;;;0.40;0.40;;;9.00;99.90;;;;;;5045661;28;20048;-87
2022/11/29 10:08:57;;;;;;;0.30;0.30;;;9.10;99.90;;;;;;5045417;28;20029;-85
2022/11/29 10:11:42;;;;;;;0.40;0.40;;;9.10;99.90;;;;;;5051646;28;20147;-87
2022/11/29 10:14:29;;;;;;;6.93;0.80;;;9.10;99.90;;;;;;5043559;28;20040;-86
2022/11/29 10:17:17;;;;;;;;;;;9.00;99.90;;;;;;5048985;28;20102;-87
2022/11/29 10:19:48;;;;;;;0.40;0.40;;;9.30;99.90;;;;;;5046577;28;19905;-88
2022/11/29 10:22:20;;;;;;;0.10;0.10;;;9.70;99.90;;;;;;5048726;28;20872;-86
2022/11/29 10:24:50;;;;;;;0.17;0.17;;;9.70;99.90;;;;;;5030308;28;20059;-86
2022/11/29 10:27:22;;;;;;;26.00;0.65;;;9.30;99.90;;;;;;5047809;28;20065;-86
2022/11/29 10:29:50;;;;;;;0.10;0.10;;;8.90;99.90;;;;;;5055107;28;20037;-86
2022/11/29 10:32:18;;;;;;;0.20;0.20;;;8.80;99.90;;;;;;5047815;28;20025;-87
2022/11/29 10:34:44;;;;;;;0.10;0.10;;;8.90;99.90;;;;;;5029336;28;20092;-86
2022/11/29 10:37:16;;;;;;;0.20;0.20;;;9.00;99.90;;;;;;5061768;28;20051;-87
2022/11/29 10:39:53;;;;;;;1.30;1.00;;;9.20;99.90;;;;;;5029565;28;20175;-86
2022/11/29 10:45:29;;;;;;;0.20;0.20;;;9.40;99.90;;;;;;5047230;28;20153;-88
2022/11/29 10:48:01;;;;;;;1.58;0.80;;;9.40;99.90;;;;;;5030273;28;20100;-88
2022/11/29 10:50:30;;;;;;;1.63;0.80;;;9.40;99.90;;;;;;5039784;28;20974;-87
2022/11/29 10:53:09;;;;;;;0.63;0.63;;;9.10;99.90;;;;;;5048507;28;20053;-87
2022/11/29 10:55:44;;;;;;;0.40;0.40;;;9.00;99.90;;;;;;5045626;28;20713;-87
2022/11/29 10:58:18;;;;;;;0.50;0.43;;;9.20;99.90;;;;;;5029757;28;20028;-87
2022/11/29 11:00:57;;;;;;;4.07;1.10;;;9.40;99.90;;;;;;5029881;28;20396;-88
2022/11/29 11:03:35;;;;;;;0.85;0.85;;;9.30;99.90;;;;;;5028948;28;20029;-87
2022/11/29 11:06:14;;;;;;;0.82;0.82;;;9.50;99.90;;;;;;5047697;28;20025;-88
2022/11/29 11:08:55;;;;;;;0.40;0.40;;;9.40;99.90;;;;;;5029679;28;20032;-88
2022/11/29 11:11:27;;;;;;;0.30;0.30;;;9.60;99.90;;;;;;5030918;28;20135;-87
2022/11/29 11:14:05;;;;;;;0.55;0.55;;;9.40;99.90;;;;;;5048488;28;20028;-88
2022/11/29 11:16:31;;;;;;;1.20;1.13;;;9.30;99.90;;;;;;5045344;28;20028;-87
2022/11/29 11:19:04;;;;;;;0.65;0.65;;;9.30;99.90;;;;;;5052941;28;20021;-88
2022/11/29 11:21:30;;;;;;;0.63;0.50;;;9.20;99.90;;;;;;5013855;28;20033;-88
2022/11/29 11:24:00;;;;;;;0.40;0.40;;;9.20;99.90;;;;;;5035464;28;20039;-90
2022/11/29 11:26:39;;;;;;;0.45;0.45;;;9.20;99.90;;;;;;5063332;28;20032;-88
2022/11/29 11:29:04;;;;;;;0.22;0.22;;;9.50;99.90;;;;;;5048655;28;20025;-89
2022/11/29 11:31:34;;;;;;;0.65;0.65;;;9.40;99.90;;;;;;5048661;28;20106;-89
2022/11/29 11:34:27;;;;;;;0.30;0.30;;;9.90;99.90;;;;;;5030453;28;20518;-88
2022/11/29 11:37:13;;;;;;;0.20;0.20;;;9.90;99.90;;;;;;5049115;28;20070;-88
2022/11/29 11:39:39;;;;;;;3.10;1.65;;;10.10;99.90;;;;;;5049191;28;20447;-88
2022/11/29 11:44:59;;;;;;;1.27;1.17;;;9.90;99.90;;;;;;5056307;28;20087;-88
2022/11/29 11:47:30;;;;;;;0.10;0.10;;;9.70;99.90;;;;;;5031479;28;20093;-88
2022/11/29 11:50:05;;;;;;;0.13;0.13;;;10.30;99.90;;;;;;5028975;28;20040;-90
2022/11/29 11:52:52;;;;;;;0.80;0.40;;;10.20;99.90;;;;;;5031578;28;20017;-88
2022/11/29 11:55:21;;;;;;;0.10;0.10;;;10.20;99.90;;;;;;5021437;28;20196;-89
2022/11/29 11:58:05;;;;;;;0.50;0.50;;;10.50;99.90;;;;;;5033842;28;20567;-90
2022/11/29 12:00:39;;;;;;;0.10;0.10;;;10.60;99.90;;;;;;5035321;28;20420;-89
2022/11/29 12:03:16;;;;;;;0.63;0.52;;;10.60;99.90;;;;;;5053816;28;20025;-89
2022/11/29 12:05:43;;;;;;;0.10;0.10;;;10.50;99.90;;;;;;5036770;28;20029;-90
2022/11/29 12:08:12;;;;;;;0.10;0.10;;;10.10;99.90;;;;;;5056079;28;20020;-88
2022/11/29 12:10:39;;;;;;;0.20;0.20;;;10.00;99.90;;;;;;5037912;28;20063;-88
2022/11/29 12:13:07;;;;;;;0.95;0.90;;;9.90;99.90;;;;;;5058212;28;20021;-90
2022/11/29 12:15:39;;;;;;;0.60;0.60;;;9.90;99.90;;;;;;5059998;28;20515;-91
2022/11/29 12:18:11;;;;;;;1.67;1.08;;;9.90;99.90;;;;;;5059401;28;20021;-88
2022/11/29 12:20:55;;;;;;;0.65;0.65;;;9.90;99.90;;;;;;5041337;28;20021;-90
2022/11/29 12:23:39;;;;;;;1.00;1.00;;;10.10;99.90;;;;;;5058910;28;20029;-92
2022/11/29 12:26:20;;;;;;;0.10;0.10;;;10.10;99.90;;;;;;5038673;28;20401;-91
2022/11/29 12:28:46;;;;;;;0.57;0.57;;;9.90;99.90;;;;;;5029755;28;20033;-89
2022/11/29 12:31:36;;;;;;;0.10;0.10;;;9.50;99.90;;;;;;5035951;28;20698;-90
2022/11/29 12:34:32;;;;;;;1.55;0.50;;;9.30;99.90;;;;;;5042760;28;20056;-90
2022/11/29 12:37:19;;;;;;;0.10;0.10;;;9.50;99.90;;;;;;5079777;28;20040;-90
2022/11/29 12:39:56;;;;;;;0.57;0.40;;;9.80;99.90;;;;;;5063569;28;20690;-90
2022/11/29 12:42:40;;;;;;;0.20;0.20;;;9.60;99.90;;;;;;5036740;28;20171;-91
2022/11/29 12:45:32;;;;;;;1.75;0.73;;;9.20;99.90;;;;;;5037403;28;20037;-90
2022/11/29 12:48:12;;;;;;;0.28;0.28;;;8.90;99.90;;;;;;5043043;28;20040;-90
2022/11/29 12:50:49;;;;;;;0.20;0.20;;;8.90;99.90;;;;;;5062482;28;20047;-89
2022/11/29 12:53:29;;;;;;;2.13;0.65;;;9.00;99.90;;;;;;5058018;28;20843;-91
2022/11/29 12:56:00;;;;;;;0.30;0.30;;;8.90;99.90;;;;;;5040652;28;20075;-90
2022/11/29 12:58:37;;;;;;;0.47;0.47;;;9.00;99.90;;;;;;5055271;28;20070;-90
2022/11/29 13:01:21;;;;;;;0.20;0.20;;;9.10;99.90;;;;;;5038013;28;20021;-91
2022/11/29 13:04:10;;;;;;;0.40;0.40;;;8.80;99.90;;;;;;5065859;28;20136;-91
2022/11/29 13:06:38;;;;;;;0.40;0.40;;;8.80;99.90;;;;;;5045998;28;20032;-90
2022/11/29 13:09:22;;;;;;;2.10;1.10;;;9.20;99.90;;;;;;5044525;28;20029;-91
2022/11/29 13:12:14;;;;;;;0.20;0.20;;;9.90;99.90;;;;;;5058136;28;20028;-90
2022/11/29 13:14:43;;;;;;;0.75;0.75;;;10.00;99.90;;;;;;5034004;28;20044;-91
2022/11/29 13:17:31;;;;;;;0.20;0.20;;;9.90;99.90;;;;;;5037358;28;20017;-92
2022/11/29 13:20:32;;;;;;;0.10;0.10;;;9.80;99.90;;;;;;5036345;28;20035;-90
2022/11/29 13:23:18;;;;;;;0.15;0.15;;;9.90;99.90;;;;;;5032324;28;20036;-90
2022/11/29 13:25:50;;;;;;;0.20;0.20;;;9.50;99.90;;;;;;5035146;28;20036;-88
2022/11/29 13:28:36;;;;;;;0.10;0.10;;;9.50;99.90;;;;;;5034563;28;20033;-88
2022/11/29 13:31:06;;;;;;;0.20;0.20;;;9.30;99.90;;;;;;5054698;28;20025;-93
2022/11/29 13:33:37;;;;;;;0.50;0.50;;;9.20;99.90;;;;;;5037001;28;20032;-92
2022/11/29 13:36:15;;;;;;;9.63;0.65;;;9.50;99.90;;;;;;5036050;28;20033;-92
2022/11/29 13:39:01;;;;;;;0.10;0.10;;;9.60;99.90;;;;;;5049993;28;20766;-92
2022/11/29 13:41:36;;;;;;;0.85;0.85;;;9.80;99.90;;;;;;5072639;28;20041;-91
2022/11/29 13:44:22;;;;;;;0.10;0.10;;;10.00;99.90;;;;;;5050018;28;20040;-92
2022/11/29 13:47:04;;;;;;;0.20;0.20;;;10.20;99.90;;;;;;5052873;28;20036;-90
2022/11/29 13:50:05;;;;;;;0.22;0.22;;;10.10;99.90;;;;;;5044792;28;20032;-91
2022/11/29 13:52:44;;;;;;;0.20;0.20;;;9.90;99.90;;;;;;5043895;28;20028;-92
2022/11/29 13:55:10;;;;;;;0.55;0.47;;;10.10;99.90;;;;;;5044744;28;20032;-89